createdAt,value
2023-09-02T00:00:56.775Z,101335.81
2023-09-02T00:01:58.295Z,101327.84
2023-09-02T00:02:59.819Z,101343.97
2023-09-02T00:04:03.931Z,101352.25
2023-09-02T00:05:09.145Z,101349.56
2023-09-02T00:06:10.742Z,101346.84
2023-09-02T00:07:12.259Z,101345.94
2023-09-02T00:08:13.711Z,101349.66
2023-09-02T00:09:16.460Z,101352.44
2023-09-02T00:10:18.210Z,101351.53
2023-09-02T00:11:19.720Z,101352.47
2023-09-02T00:12:21.176Z,101355.19
2023-09-02T00:13:22.768Z,101349.78
2023-09-02T00:14:24.217Z,101354.34
2023-09-02T00:15:25.702Z,101348.06
2023-09-02T00:16:27.265Z,101355.41
2023-09-02T00:17:29.126Z,101348.19
2023-09-02T00:18:30.572Z,101350.00
2023-09-02T00:19:32.041Z,101359.13
2023-09-02T00:20:33.544Z,101351.78
2023-09-02T00:21:35.091Z,101352.72
2023-09-02T00:22:36.587Z,101352.72
2023-09-02T00:23:40.515Z,101352.81
2023-09-02T00:24:41.951Z,101355.53
2023-09-02T00:25:43.429Z,101355.47
2023-09-02T00:26:44.878Z,101357.31
2023-09-02T00:27:46.305Z,101359.13
2023-09-02T00:28:47.815Z,101353.59
2023-09-02T00:29:49.329Z,101357.09
2023-09-02T00:30:50.814Z,101361.59
2023-09-02T00:31:52.276Z,101356.94
2023-09-02T00:32:53.749Z,101356.94
2023-09-02T00:33:55.279Z,101356.03
2023-09-02T00:34:56.727Z,101353.34
2023-09-02T00:35:58.233Z,101354.28
2023-09-02T00:36:59.818Z,101355.25
2023-09-02T00:38:01.308Z,101362.56
2023-09-02T00:39:03.056Z,101360.81
2023-09-02T00:40:06.810Z,101365.38
2023-09-02T00:41:13.741Z,101363.59
2023-09-02T00:42:20.612Z,101362.72
2023-09-02T00:43:22.094Z,101366.41
2023-09-02T00:44:24.066Z,101363.69
2023-09-02T00:45:25.797Z,101370.13
2023-09-02T00:46:27.409Z,101365.63
2023-09-02T00:47:28.964Z,101359.25
2023-09-02T00:48:30.487Z,101359.25
2023-09-02T00:49:34.911Z,101369.34
2023-09-02T00:50:36.557Z,101365.72
2023-09-02T00:51:38.061Z,101355.81
2023-09-02T00:52:39.522Z,101366.72
2023-09-02T00:53:41.118Z,101363.09
2023-09-02T00:54:42.631Z,101374.94
2023-09-02T00:55:44.233Z,101369.44
2023-09-02T00:56:45.729Z,101367.66
2023-09-02T00:57:47.537Z,101367.66
2023-09-02T00:58:49.056Z,101374.06
2023-09-02T00:59:51.052Z,101365.94
2023-09-02T01:00:53.542Z,101363.19
2023-09-02T01:01:56.912Z,101369.59
2023-09-02T01:02:59.752Z,101369.63
2023-09-02T01:04:04.755Z,101372.38
2023-09-02T01:05:07.292Z,101359.69
2023-09-02T01:06:09.912Z,101373.31
2023-09-02T01:07:11.829Z,101366.94
2023-09-02T01:08:14.561Z,101367.88
2023-09-02T01:09:16.065Z,101373.41
2023-09-02T01:10:18.516Z,101369.88
2023-09-02T01:11:19.979Z,101378.91
2023-09-02T01:12:21.447Z,101371.59
2023-09-02T01:13:23.005Z,101363.50
2023-09-02T01:14:24.510Z,101375.28
2023-09-02T01:15:25.928Z,101373.53
2023-09-02T01:16:27.472Z,101372.66
2023-09-02T01:17:29.054Z,101372.69
2023-09-02T01:18:31.144Z,101370.91
2023-09-02T01:19:33.610Z,101372.75
2023-09-02T01:21:15.489Z,101373.72
2023-09-02T01:22:38.955Z,101376.38
2023-09-02T01:24:02.387Z,101370.97
2023-09-02T01:25:47.583Z,101376.47
2023-09-02T01:27:19.911Z,101376.44
2023-09-02T01:28:29.516Z,101378.31
2023-09-02T01:29:37.472Z,101378.31
2023-09-02T01:30:41.420Z,101374.63
2023-09-02T01:31:42.964Z,101379.19
2023-09-02T01:32:47.193Z,101377.34
2023-09-02T01:33:50.233Z,101385.53
2023-09-02T01:34:52.522Z,101385.59
2023-09-02T01:35:56.193Z,101384.69
2023-09-02T01:37:00.415Z,101374.72
2023-09-02T01:38:04.641Z,101385.59
2023-09-02T01:39:08.677Z,101377.47
2023-09-02T01:40:15.590Z,101389.25
2023-09-02T01:41:17.099Z,101387.47
2023-09-02T01:42:19.220Z,101389.31
2023-09-02T01:43:22.247Z,101390.22
2023-09-02T01:44:24.723Z,101387.50
2023-09-02T01:45:30.730Z,101393.00
2023-09-02T01:46:32.247Z,101383.97
2023-09-02T01:47:33.809Z,101397.56
2023-09-02T01:48:36.090Z,101396.66
2023-09-02T01:49:38.760Z,101391.22
2023-09-02T01:50:42.754Z,101395.78
2023-09-02T01:51:45.424Z,101397.63
2023-09-02T01:52:48.481Z,101401.25
2023-09-02T01:53:50.008Z,101394.88
2023-09-02T01:54:51.734Z,101398.50
2023-09-02T01:55:53.910Z,101403.97
2023-09-02T01:56:56.237Z,101395.84
2023-09-02T01:57:59.117Z,101401.25
2023-09-02T01:59:00.766Z,101394.94
2023-09-02T02:00:02.225Z,101406.81
2023-09-02T02:01:03.860Z,101405.88
2023-09-02T02:02:05.464Z,101404.09
2023-09-02T02:03:16.109Z,101410.47
2023-09-02T02:04:26.822Z,101405.91
2023-09-02T02:05:40.486Z,101412.28
2023-09-02T02:06:44.488Z,101419.47
2023-09-02T02:07:49.841Z,101422.19
2023-09-02T02:08:58.420Z,101416.78
2023-09-02T02:10:02.573Z,101425.94
2023-09-02T02:11:06.562Z,101422.31
2023-09-02T02:12:09.328Z,101422.31
2023-09-02T02:13:10.810Z,101410.47
2023-09-02T02:14:12.290Z,101424.13
2023-09-02T02:15:13.735Z,101427.75
2023-09-02T02:16:15.701Z,101421.44
2023-09-02T02:17:17.171Z,101425.09
2023-09-02T02:18:18.636Z,101420.59
2023-09-02T02:19:20.178Z,101424.22
2023-09-02T02:20:22.380Z,101420.56
2023-09-02T02:21:24.565Z,101422.41
2023-09-02T02:22:26.049Z,101422.44
2023-09-02T02:23:27.487Z,101420.59
2023-09-02T02:24:29.028Z,101422.44
2023-09-02T02:25:30.491Z,101422.47
2023-09-02T02:26:31.965Z,101417.00
2023-09-02T02:27:33.431Z,101422.47
2023-09-02T02:28:35.087Z,101426.09
2023-09-02T02:29:36.559Z,101426.09
2023-09-02T02:30:38.138Z,101425.19
2023-09-02T02:31:39.636Z,101427.06
2023-09-02T02:32:41.444Z,101415.38
2023-09-02T02:33:42.951Z,101427.06
2023-09-02T02:34:45.368Z,101432.50
2023-09-02T02:35:47.020Z,101434.34
2023-09-02T02:36:48.474Z,101431.66
2023-09-02T02:37:53.130Z,101437.13
2023-09-02T02:38:54.586Z,101427.09
2023-09-02T02:39:56.089Z,101425.28
2023-09-02T02:40:57.615Z,101432.50
2023-09-02T02:41:59.071Z,101434.28
2023-09-02T02:43:00.551Z,101436.09
2023-09-02T02:44:02.327Z,101437.03
2023-09-02T02:45:03.998Z,101430.66
2023-09-02T02:46:05.617Z,101428.81
2023-09-02T02:47:07.254Z,101429.69
2023-09-02T02:48:16.124Z,101438.84
2023-09-02T02:49:17.626Z,101427.88
2023-09-02T02:50:19.069Z,101429.69
2023-09-02T02:51:20.593Z,101431.56
2023-09-02T02:52:22.526Z,101436.06
2023-09-02T02:53:24.517Z,101436.13
2023-09-02T02:54:25.983Z,101438.88
2023-09-02T02:55:27.404Z,101440.66
2023-09-02T02:56:28.875Z,101438.88
2023-09-02T02:57:30.373Z,101437.97
2023-09-02T02:58:33.839Z,101442.56
2023-09-02T02:59:35.393Z,101440.75
2023-09-02T03:00:36.821Z,101437.97
2023-09-02T03:01:38.279Z,101441.72
2023-09-02T03:02:39.880Z,101443.53
2023-09-02T03:03:42.192Z,101439.03
2023-09-02T03:04:49.074Z,101442.66
2023-09-02T03:05:50.525Z,101441.75
2023-09-02T03:06:52.042Z,101437.25
2023-09-02T03:07:53.537Z,101431.81
2023-09-02T03:08:55.006Z,101439.09
2023-09-02T03:09:56.476Z,101440.94
2023-09-02T03:11:03.114Z,101439.09
2023-09-02T03:12:04.935Z,101442.75
2023-09-02T03:13:06.723Z,101449.13
2023-09-02T03:14:08.336Z,101443.69
2023-09-02T03:15:09.918Z,101447.28
2023-09-02T03:16:11.463Z,101443.69
2023-09-02T03:17:13.004Z,101452.78
2023-09-02T03:18:14.427Z,101438.25
2023-09-02T03:19:15.869Z,101445.59
2023-09-02T03:20:17.374Z,101444.59
2023-09-02T03:21:18.936Z,101446.41
2023-09-02T03:22:20.430Z,101450.06
2023-09-02T03:23:23.141Z,101458.25
2023-09-02T03:24:24.615Z,101449.13
2023-09-02T03:25:28.401Z,101444.59
2023-09-02T03:26:29.872Z,101449.13
2023-09-02T03:27:31.358Z,101448.22
2023-09-02T03:28:32.784Z,101445.47
2023-09-02T03:29:34.456Z,101447.28
2023-09-02T03:30:35.938Z,101446.41
2023-09-02T03:31:37.600Z,101448.22
2023-09-02T03:32:39.134Z,101458.25
2023-09-02T03:33:40.734Z,101456.47
2023-09-02T03:34:42.167Z,101458.25
2023-09-02T03:35:43.747Z,101457.38
2023-09-02T03:36:45.169Z,101452.81
2023-09-02T03:37:46.767Z,101446.47
2023-09-02T03:38:48.380Z,101456.47
2023-09-02T03:39:49.953Z,101451.91
2023-09-02T03:40:51.394Z,101447.41
2023-09-02T03:41:52.817Z,101451.97
2023-09-02T03:42:54.359Z,101458.34
2023-09-02T03:43:57.027Z,101457.47
2023-09-02T03:44:59.236Z,101462.94
2023-09-02T03:46:00.709Z,101463.88
2023-09-02T03:47:02.321Z,101465.69
2023-09-02T03:48:04.319Z,101459.31
2023-09-02T03:49:07.001Z,101471.16
2023-09-02T03:50:08.677Z,101461.16
2023-09-02T03:51:17.030Z,101464.75
2023-09-02T03:52:18.491Z,101464.78
2023-09-02T03:53:19.914Z,101462.03
2023-09-02T03:54:21.811Z,101470.19
2023-09-02T03:55:23.280Z,101472.03
2023-09-02T03:56:24.797Z,101472.03
2023-09-02T03:57:26.335Z,101473.78
2023-09-02T03:58:29.502Z,101475.56
2023-09-02T03:59:30.945Z,101470.13
2023-09-02T04:00:32.392Z,101476.53
2023-09-02T04:01:33.908Z,101472.84
2023-09-02T04:02:35.395Z,101470.09
2023-09-02T04:03:37.011Z,101475.47
2023-09-02T04:04:38.605Z,101476.38
2023-09-02T04:05:40.040Z,101475.44
2023-09-02T04:06:41.502Z,101468.16
2023-09-02T04:07:42.964Z,101479.06
2023-09-02T04:08:44.398Z,101466.28
2023-09-02T04:09:45.866Z,101470.88
2023-09-02T04:10:55.167Z,101468.09
2023-09-02T04:11:58.949Z,101468.06
2023-09-02T04:13:00.410Z,101464.41
2023-09-02T04:14:02.806Z,101474.44
2023-09-02T04:15:04.891Z,101469.88
2023-09-02T04:16:09.444Z,101473.47
2023-09-02T04:17:13.509Z,101473.47
2023-09-02T04:18:14.946Z,101476.25
2023-09-02T04:19:18.780Z,101476.31
2023-09-02T04:20:20.264Z,101480.81
2023-09-02T04:21:21.745Z,101481.72
2023-09-02T04:22:23.296Z,101482.66
2023-09-02T04:23:24.725Z,101484.47
2023-09-02T04:24:28.329Z,101479.06
2023-09-02T04:25:29.813Z,101484.53
2023-09-02T04:26:31.285Z,101483.63
2023-09-02T04:27:32.713Z,101483.63
2023-09-02T04:28:34.157Z,101477.28
2023-09-02T04:29:35.587Z,101483.69
2023-09-02T04:30:37.019Z,101484.59
2023-09-02T04:31:38.443Z,101478.22
2023-09-02T04:32:40.077Z,101484.63
2023-09-02T04:33:41.642Z,101486.47
2023-09-02T04:34:43.114Z,101486.47
2023-09-02T04:35:46.278Z,101481.03
2023-09-02T04:36:47.716Z,101486.47
2023-09-02T04:37:49.199Z,101487.34
2023-09-02T04:38:53.588Z,101487.41
2023-09-02T04:39:55.056Z,101489.22
2023-09-02T04:40:56.499Z,101491.00
2023-09-02T04:41:57.948Z,101480.16
2023-09-02T04:42:59.575Z,101491.94
2023-09-02T04:44:01.052Z,101500.13
2023-09-02T04:45:02.495Z,101495.59
2023-09-02T04:46:04.899Z,101499.22
2023-09-02T04:47:07.710Z,101502.88
2023-09-02T04:48:10.543Z,101498.31
2023-09-02T04:49:11.981Z,101500.13
2023-09-02T04:50:13.463Z,101498.31
2023-09-02T04:51:14.925Z,101500.13
2023-09-02T04:52:16.456Z,101502.88
2023-09-02T04:53:19.704Z,101498.28
2023-09-02T04:54:21.497Z,101505.50
2023-09-02T04:55:22.911Z,101506.41
2023-09-02T04:56:24.692Z,101515.50
2023-09-02T04:57:26.127Z,101516.38
2023-09-02T04:58:28.712Z,101513.66
2023-09-02T04:59:30.219Z,101520.94
2023-09-02T05:00:31.875Z,101513.63
2023-09-02T05:01:33.431Z,101514.53
2023-09-02T05:02:34.956Z,101519.03
2023-09-02T05:03:36.434Z,101517.22
2023-09-02T05:04:37.883Z,101518.94
2023-09-02T05:05:39.454Z,101515.31
2023-09-02T05:06:40.929Z,101524.34
2023-09-02T05:07:42.602Z,101521.56
2023-09-02T05:08:44.066Z,101518.84
2023-09-02T05:09:45.502Z,101517.97
2023-09-02T05:10:46.970Z,101521.53
2023-09-02T05:11:48.413Z,101515.09
2023-09-02T05:12:49.859Z,101525.06
2023-09-02T05:13:51.381Z,101528.72
2023-09-02T05:14:52.825Z,101525.94
2023-09-02T05:15:54.312Z,101528.63
2023-09-02T05:16:55.782Z,101524.06
2023-09-02T05:17:58.970Z,101529.50
2023-09-02T05:19:00.588Z,101526.75
2023-09-02T05:20:06.780Z,101533.09
2023-09-02T05:21:08.254Z,101534.84
2023-09-02T05:22:10.628Z,101540.25
2023-09-02T05:23:13.412Z,101540.16
2023-09-02T05:24:14.868Z,101535.56
2023-09-02T05:25:16.387Z,101545.53
2023-09-02T05:26:17.886Z,101537.22
2023-09-02T05:27:20.926Z,101543.53
2023-09-02T05:28:23.713Z,101548.88
2023-09-02T05:29:25.166Z,101545.06
2023-09-02T05:30:26.722Z,101552.19
2023-09-02T05:31:28.209Z,101544.81
2023-09-02T05:32:29.698Z,101552.75
2023-09-02T05:33:31.349Z,101548.97
2023-09-02T05:34:34.135Z,101558.81
2023-09-02T05:35:36.826Z,101555.00
2023-09-02T05:36:38.366Z,101559.41
2023-09-02T05:37:39.823Z,101553.78
2023-09-02T05:38:41.291Z,101548.19
2023-09-02T05:39:42.841Z,101558.06
2023-09-02T05:40:44.470Z,101550.63
2023-09-02T05:41:46.415Z,101549.63
2023-09-02T05:42:47.818Z,101553.97
2023-09-02T05:43:49.294Z,101556.59
2023-09-02T05:44:50.762Z,101552.81
2023-09-02T05:45:52.281Z,101554.50
2023-09-02T05:46:53.753Z,101555.31
2023-09-02T05:47:55.200Z,101549.84
2023-09-02T05:48:56.993Z,101551.50
2023-09-02T05:49:58.412Z,101550.50
2023-09-02T05:50:59.843Z,101552.19
2023-09-02T05:52:01.269Z,101555.81
2023-09-02T05:53:02.842Z,101548.44
2023-09-02T05:54:04.535Z,101549.38
2023-09-02T05:55:06.718Z,101552.03
2023-09-02T05:56:08.204Z,101547.44
2023-09-02T05:57:09.794Z,101550.88
2023-09-02T05:58:11.265Z,101548.03
2023-09-02T05:59:13.933Z,101561.41
2023-09-02T06:00:15.568Z,101559.59
2023-09-02T06:01:17.102Z,101568.69
2023-09-02T06:02:18.557Z,101568.53
2023-09-02T06:03:20.343Z,101565.66
2023-09-02T06:04:22.002Z,101547.44
2023-09-02T06:05:23.500Z,101564.44
2023-09-02T06:06:25.483Z,101567.88
2023-09-02T06:07:27.020Z,101570.44
2023-09-02T06:08:29.295Z,101568.66
2023-09-02T06:09:31.354Z,101569.41
2023-09-02T06:10:32.819Z,101566.59
2023-09-02T06:11:34.273Z,101566.50
2023-09-02T06:12:35.747Z,101572.81
2023-09-02T06:13:37.212Z,101568.22
2023-09-02T06:14:38.696Z,101564.47
2023-09-02T06:15:40.181Z,101569.97
2023-09-02T06:16:41.693Z,101572.72
2023-09-02T06:17:43.213Z,101562.72
2023-09-02T06:18:44.653Z,101562.84
2023-09-02T06:19:46.087Z,101561.94
2023-09-02T06:20:47.570Z,101571.84
2023-09-02T06:21:49.016Z,101565.56
2023-09-02T06:22:50.425Z,101568.47
2023-09-02T06:23:51.920Z,101574.88
2023-09-02T06:24:55.457Z,101574.88
2023-09-02T06:26:01.284Z,101578.56
2023-09-02T06:27:04.887Z,101582.19
2023-09-02T06:28:06.536Z,101576.69
2023-09-02T06:29:08.135Z,101573.84
2023-09-02T06:30:09.997Z,101567.44
2023-09-02T06:31:11.863Z,101574.47
2023-09-02T06:32:13.390Z,101576.25
2023-09-02T06:33:16.468Z,101576.25
2023-09-02T06:34:23.547Z,101568.78
2023-09-02T06:35:24.986Z,101574.94
2023-09-02T06:36:26.478Z,101579.47
2023-09-02T06:37:30.092Z,101581.94
2023-09-02T06:38:32.342Z,101573.63
2023-09-02T06:39:33.809Z,101577.25
2023-09-02T06:40:35.239Z,101563.44
2023-09-02T06:41:36.707Z,101569.00
2023-09-02T06:42:38.210Z,101570.72
2023-09-02T06:43:40.224Z,101573.38
2023-09-02T06:44:41.665Z,101583.47
2023-09-02T06:45:43.142Z,101576.13
2023-09-02T06:46:44.882Z,101576.97
2023-09-02T06:47:46.431Z,101589.84
2023-09-02T06:48:48.776Z,101582.41
2023-09-02T06:49:50.542Z,101591.50
2023-09-02T06:50:52.000Z,101582.97
2023-09-02T06:51:53.463Z,101593.63
2023-09-02T06:52:55.041Z,101592.53
2023-09-02T06:53:56.523Z,101592.44
2023-09-02T06:54:57.956Z,101600.63
2023-09-02T06:55:59.423Z,101587.75
2023-09-02T06:57:00.895Z,101594.91
2023-09-02T06:58:02.730Z,101598.47
2023-09-02T06:59:04.302Z,101596.53
2023-09-02T07:00:06.534Z,101603.00
2023-09-02T07:01:08.116Z,101596.59
2023-09-02T07:02:09.642Z,101593.72
2023-09-02T07:03:12.512Z,101600.97
2023-09-02T07:04:14.564Z,101589.09
2023-09-02T07:05:16.120Z,101588.00
2023-09-02T07:06:17.789Z,101598.00
2023-09-02T07:07:19.276Z,101597.06
2023-09-02T07:08:20.805Z,101598.69
2023-09-02T07:09:22.277Z,101603.94
2023-09-02T07:10:23.725Z,101600.97
2023-09-02T07:11:25.556Z,101599.84
2023-09-02T07:12:27.938Z,101603.38
2023-09-02T07:13:29.482Z,101605.94
2023-09-02T07:14:30.957Z,101607.44
2023-09-02T07:15:32.423Z,101604.56
2023-09-02T07:16:33.888Z,101611.78
2023-09-02T07:17:35.366Z,101610.09
2023-09-02T07:18:36.835Z,101618.28
2023-09-02T07:19:38.399Z,101611.63
2023-09-02T07:20:39.863Z,101612.59
2023-09-02T07:21:41.310Z,101618.84
2023-09-02T07:22:42.799Z,101607.81
2023-09-02T07:23:44.246Z,101615.97
2023-09-02T07:24:45.741Z,101608.63
2023-09-02T07:25:47.273Z,101609.44
2023-09-02T07:26:48.700Z,101614.72
2023-09-02T07:27:50.166Z,101623.75
2023-09-02T07:28:51.646Z,101621.03
2023-09-02T07:29:53.147Z,101612.63
2023-09-02T07:30:57.256Z,101618.00
2023-09-02T07:31:58.744Z,101620.81
2023-09-02T07:33:00.369Z,101612.28
2023-09-02T07:34:01.865Z,101617.72
2023-09-02T07:35:03.425Z,101620.34
2023-09-02T07:36:12.453Z,101612.94
2023-09-02T07:37:13.932Z,101610.97
2023-09-02T07:38:15.484Z,101615.41
2023-09-02T07:39:17.834Z,101620.84
2023-09-02T07:40:19.406Z,101627.19
2023-09-02T07:41:20.884Z,101627.25
2023-09-02T07:42:22.364Z,101622.53
2023-09-02T07:43:23.828Z,101635.28
2023-09-02T07:44:25.286Z,101629.63
2023-09-02T07:45:26.794Z,101635.06
2023-09-02T07:46:28.271Z,101632.19
2023-09-02T07:47:30.234Z,101644.03
2023-09-02T07:48:31.892Z,101628.19
2023-09-02T07:49:33.354Z,101643.59
2023-09-02T07:50:34.793Z,101637.94
2023-09-02T07:51:36.258Z,101643.28
2023-09-02T07:52:37.713Z,101643.19
2023-09-02T07:53:39.165Z,101644.66
2023-09-02T07:54:40.773Z,101634.44
2023-09-02T07:55:42.373Z,101638.91
2023-09-02T07:56:43.942Z,101638.69
2023-09-02T07:57:45.429Z,101638.44
2023-09-02T07:58:49.536Z,101643.97
2023-09-02T07:59:51.098Z,101648.53
2023-09-02T08:00:56.909Z,101648.53
2023-09-02T08:01:58.510Z,101652.00
2023-09-02T08:03:00.234Z,101647.47
2023-09-02T08:04:04.758Z,101648.41
2023-09-02T08:05:07.833Z,101644.75
2023-09-02T08:06:09.981Z,101647.69
2023-09-02T08:07:11.437Z,101641.34
2023-09-02T08:08:12.962Z,101646.78
2023-09-02T08:09:14.963Z,101646.00
2023-09-02T08:10:16.623Z,101654.06
2023-09-02T08:11:19.055Z,101655.75
2023-09-02T08:12:20.668Z,101650.97
2023-09-02T08:13:22.088Z,101650.78
2023-09-02T08:14:23.543Z,101656.28
2023-09-02T08:15:25.697Z,101656.16
2023-09-02T08:16:27.245Z,101653.16
2023-09-02T08:17:28.712Z,101655.75
2023-09-02T08:18:30.305Z,101652.22
2023-09-02T08:19:32.821Z,101652.09
2023-09-02T08:20:36.638Z,101655.03
2023-09-02T08:21:38.108Z,101662.91
2023-09-02T08:22:40.701Z,101655.09
2023-09-02T08:23:42.433Z,101656.06
2023-09-02T08:24:43.871Z,101662.44
2023-09-02T08:25:45.574Z,101656.53
2023-09-02T08:26:47.022Z,101652.59
2023-09-02T08:27:48.787Z,101664.22
2023-09-02T08:28:50.228Z,101658.53
2023-09-02T08:29:52.839Z,101665.44
2023-09-02T08:30:54.367Z,101663.31
2023-09-02T08:31:56.802Z,101657.66
2023-09-02T08:32:58.429Z,101659.50
2023-09-02T08:33:59.907Z,101661.44
2023-09-02T08:35:01.351Z,101660.59
2023-09-02T08:36:02.831Z,101664.34
2023-09-02T08:37:04.624Z,101663.13
2023-09-02T08:38:06.157Z,101664.75
2023-09-02T08:39:07.675Z,101670.84
2023-09-02T08:40:09.721Z,101672.50
2023-09-02T08:41:25.578Z,101669.06
2023-09-02T08:42:27.801Z,101669.97
2023-09-02T08:43:30.090Z,101667.06
2023-09-02T08:44:36.126Z,101673.59
2023-09-02T08:45:42.304Z,101672.25
2023-09-02T08:46:46.600Z,101670.16
2023-09-02T08:47:52.259Z,101677.28
2023-09-02T08:48:56.531Z,101673.38
2023-09-02T08:49:59.138Z,101682.53
2023-09-02T08:51:01.396Z,101682.41
2023-09-02T08:52:03.014Z,101680.22
2023-09-02T08:53:04.899Z,101671.72
2023-09-02T08:54:06.652Z,101679.56
2023-09-02T08:55:11.922Z,101681.91
2023-09-02T08:56:14.124Z,101670.06
2023-09-02T08:57:17.545Z,101680.66
2023-09-02T08:58:20.486Z,101673.22
2023-09-02T08:59:22.011Z,101676.03
2023-09-02T09:00:24.569Z,101677.13
2023-09-02T09:01:26.155Z,101683.44
2023-09-02T09:02:28.805Z,101682.56
2023-09-02T09:03:32.322Z,101684.94
2023-09-02T09:04:37.441Z,101685.09
2023-09-02T09:05:41.386Z,101685.56
2023-09-02T09:06:43.554Z,101689.16
2023-09-02T09:07:46.396Z,101681.56
2023-09-02T09:08:48.970Z,101686.19
2023-09-02T09:09:53.521Z,101683.56
2023-09-02T09:10:57.165Z,101686.47
2023-09-02T09:12:02.616Z,101673.75
2023-09-02T09:13:12.219Z,101685.91
2023-09-02T09:14:19.102Z,101683.28
2023-09-02T09:15:23.796Z,101682.09
2023-09-02T09:16:26.946Z,101686.09
2023-09-02T09:17:29.809Z,101683.41
2023-09-02T09:18:31.422Z,101678.56
2023-09-02T09:19:34.832Z,101683.28
2023-09-02T09:20:36.957Z,101688.41
2023-09-02T09:21:38.432Z,101691.75
2023-09-02T09:22:40.516Z,101688.16
2023-09-02T09:23:42.012Z,101690.72
2023-09-02T09:24:43.538Z,101689.88
2023-09-02T09:25:50.337Z,101691.41
2023-09-02T09:26:52.258Z,101695.81
2023-09-02T09:27:53.876Z,101693.47
2023-09-02T09:28:59.795Z,101688.69
2023-09-02T09:30:01.602Z,101699.44
2023-09-02T09:31:16.250Z,101694.69
2023-09-02T09:32:19.429Z,101690.75
2023-09-02T09:33:21.297Z,101691.59
2023-09-02T09:34:36.521Z,101696.03
2023-09-02T09:35:38.262Z,101695.72
2023-09-02T09:36:41.336Z,101690.78
2023-09-02T09:37:54.175Z,101692.19
2023-09-02T09:38:58.273Z,101692.78
2023-09-02T09:39:59.738Z,101686.13
2023-09-02T09:41:01.286Z,101693.09
2023-09-02T09:42:02.787Z,101693.94
2023-09-02T09:43:17.528Z,101696.88
2023-09-02T09:44:19.203Z,101692.25
2023-09-02T09:45:20.835Z,101698.47
2023-09-02T09:46:22.465Z,101699.06
2023-09-02T09:47:26.150Z,101702.28
2023-09-02T09:48:27.695Z,101698.09
2023-09-02T09:49:31.330Z,101703.16
2023-09-02T09:50:32.775Z,101701.81
2023-09-02T09:51:34.233Z,101702.34
2023-09-02T09:52:35.686Z,101698.50
2023-09-02T09:53:47.222Z,101698.50
2023-09-02T09:54:53.637Z,101705.84
2023-09-02T09:55:55.416Z,101700.53
2023-09-02T09:56:58.006Z,101707.06
2023-09-02T09:58:00.171Z,101696.63
2023-09-02T09:59:09.665Z,101699.91
2023-09-02T10:00:15.963Z,101706.78
2023-09-02T10:01:22.913Z,101705.75
2023-09-02T10:02:25.000Z,101709.28
2023-09-02T10:03:31.770Z,101694.09
2023-09-02T10:04:33.972Z,101695.91
2023-09-02T10:05:36.465Z,101692.72
2023-09-02T10:06:39.491Z,101692.03
2023-09-02T10:07:40.974Z,101689.94
2023-09-02T10:08:53.491Z,101686.56
2023-09-02T10:09:56.508Z,101692.13
2023-09-02T10:10:58.007Z,101690.75
2023-09-02T10:12:11.463Z,101690.66
2023-09-02T10:13:12.925Z,101690.94
2023-09-02T10:14:15.444Z,101694.59
2023-09-02T10:15:16.964Z,101685.16
2023-09-02T10:16:18.943Z,101683.56
2023-09-02T10:17:20.901Z,101692.63
2023-09-02T10:18:24.455Z,101694.38
2023-09-02T10:19:25.934Z,101693.78
2023-09-02T10:20:30.017Z,101700.13
2023-09-02T10:21:34.607Z,101689.19
2023-09-02T10:22:40.510Z,101696.78
2023-09-02T10:24:05.308Z,101694.13
2023-09-02T10:25:25.137Z,101691.69
2023-09-02T10:26:38.185Z,101694.78
2023-09-02T10:27:43.824Z,101694.59
2023-09-02T10:28:47.958Z,101695.31
2023-09-02T10:29:56.024Z,101693.72
2023-09-02T10:31:00.822Z,101696.28
2023-09-02T10:32:10.620Z,101695.47
2023-09-02T10:33:46.816Z,101692.81
2023-09-02T10:35:07.502Z,101694.22
2023-09-02T10:36:09.640Z,101689.75
2023-09-02T10:37:15.180Z,101693.63
2023-09-02T10:38:20.991Z,101692.00
2023-09-02T10:39:35.553Z,101695.31
2023-09-02T10:40:40.350Z,101697.06
2023-09-02T10:41:42.686Z,101694.81
2023-09-02T10:42:45.321Z,101691.84
2023-09-02T10:43:47.665Z,101696.28
2023-09-02T10:44:49.276Z,101694.22
2023-09-02T10:45:51.445Z,101688.53
2023-09-02T10:46:56.295Z,101695.97
2023-09-02T10:48:00.469Z,101689.28
2023-09-02T10:49:02.488Z,101689.19
2023-09-02T10:50:05.383Z,101699.94
2023-09-02T10:51:08.660Z,101703.69
2023-09-02T10:52:13.796Z,101700.13
2023-09-02T10:53:16.295Z,101707.81
2023-09-02T10:54:17.769Z,101705.28
2023-09-02T10:55:19.309Z,101708.41
2023-09-02T10:56:34.010Z,101701.41
2023-09-02T10:57:50.093Z,101706.69
2023-09-02T10:58:51.538Z,101695.25
2023-09-02T11:00:41.498Z,101695.09
2023-09-02T11:01:49.892Z,101696.47
2023-09-02T11:02:54.173Z,101697.88
2023-09-02T11:03:56.338Z,101692.44
2023-09-02T11:04:58.599Z,101701.22
2023-09-02T11:06:07.361Z,101695.47
2023-09-02T11:07:21.143Z,101696.91
2023-09-02T11:08:51.305Z,101700.38
2023-09-02T11:09:55.090Z,101696.19
2023-09-02T11:10:56.943Z,101685.22
2023-09-02T11:12:11.562Z,101690.63
2023-09-02T11:13:13.045Z,101690.88
2023-09-02T11:14:17.630Z,101698.59
2023-09-02T11:15:19.758Z,101689.28
2023-09-02T11:16:21.414Z,101692.56
2023-09-02T11:17:30.798Z,101699.34
2023-09-02T11:18:35.793Z,101693.41
2023-09-02T11:20:08.433Z,101699.00
2023-09-02T11:21:09.918Z,101705.66
2023-09-02T11:22:50.379Z,101711.34
2023-09-02T11:23:51.942Z,101706.44
2023-09-02T11:24:53.533Z,101705.34
2023-09-02T11:26:03.068Z,101698.78
2023-09-02T11:27:04.841Z,101699.22
2023-09-02T11:28:27.455Z,101710.94
2023-09-02T11:29:30.533Z,101704.16
2023-09-02T11:30:34.277Z,101710.41
2023-09-02T11:32:05.665Z,101705.56
2023-09-02T11:33:07.822Z,101705.88
2023-09-02T11:34:09.409Z,101711.75
2023-09-02T11:35:12.693Z,101711.84
2023-09-02T11:36:19.002Z,101711.34
2023-09-02T11:37:31.478Z,101700.88
2023-09-02T11:38:35.077Z,101712.94
2023-09-02T11:39:36.995Z,101711.16
2023-09-02T11:40:38.541Z,101703.78
2023-09-02T11:41:39.980Z,101713.72
2023-09-02T11:43:02.381Z,101712.78
2023-09-02T11:44:11.967Z,101710.03
2023-09-02T11:45:15.162Z,101710.91
2023-09-02T11:46:16.683Z,101712.28
2023-09-02T11:47:18.415Z,101708.16
2023-09-02T11:48:19.998Z,101709.28
2023-09-02T11:49:28.076Z,101707.78
2023-09-02T11:50:29.786Z,101695.25
2023-09-02T11:51:31.288Z,101711.38
2023-09-02T11:52:33.462Z,101696.88
2023-09-02T11:53:34.969Z,101694.81
2023-09-02T11:54:40.674Z,101701.50
2023-09-02T11:55:42.191Z,101708.28
2023-09-02T11:56:56.534Z,101701.50
2023-09-02T11:57:58.056Z,101708.41
2023-09-02T11:58:59.493Z,101706.38
2023-09-02T12:00:01.013Z,101712.69
2023-09-02T12:01:02.499Z,101712.91
2023-09-02T12:02:17.722Z,101717.16
2023-09-02T12:03:28.707Z,101715.50